sensor_id;sensor_type;location;lat;lon;timestamp;P1;durP1;ratioP1;P2;durP2;ratioP2
33954;SDS011;20233;50.804;7.126;2023-05-07T00:02:26;6.03;;;3.58;;
33954;SDS011;20233;50.804;7.126;2023-05-07T00:04:52;5.72;;;3.30;;
33954;SDS011;20233;50.804;7.126;2023-05-07T00:07:18;4.13;;;2.80;;
33954;SDS011;20233;50.804;7.126;2023-05-07T00:09:45;4.25;;;2.80;;
33954;SDS011;20233;50.804;7.126;2023-05-07T00:12:11;5.13;;;2.92;;
33954;SDS011;20233;50.804;7.126;2023-05-07T00:14:37;4.22;;;3.10;;
33954;SDS011;20233;50.804;7.126;2023-05-07T00:17:04;3.65;;;3.15;;
33954;SDS011;20233;50.804;7.126;2023-05-07T00:19:30;5.05;;;2.38;;
33954;SDS011;20233;50.804;7.126;2023-05-07T00:21:57;5.13;;;3.00;;
33954;SDS011;20233;50.804;7.126;2023-05-07T00:24:23;5.25;;;2.53;;
33954;SDS011;20233;50.804;7.126;2023-05-07T00:26:50;4.10;;;2.97;;
33954;SDS011;20233;50.804;7.126;2023-05-07T00:29:18;5.68;;;3.00;;
33954;SDS011;20233;50.804;7.126;2023-05-07T00:31:44;4.80;;;3.08;;
33954;SDS011;20233;50.804;7.126;2023-05-07T00:34:11;4.68;;;2.70;;
33954;SDS011;20233;50.804;7.126;2023-05-07T00:36:37;3.60;;;2.80;;
33954;SDS011;20233;50.804;7.126;2023-05-07T00:39:03;3.13;;;2.33;;
33954;SDS011;20233;50.804;7.126;2023-05-07T00:41:29;5.03;;;2.50;;
33954;SDS011;20233;50.804;7.126;2023-05-07T00:43:56;4.90;;;2.50;;
33954;SDS011;20233;50.804;7.126;2023-05-07T00:46:22;5.45;;;2.40;;
33954;SDS011;20233;50.804;7.126;2023-05-07T00:48:50;5.50;;;2.53;;
33954;SDS011;20233;50.804;7.126;2023-05-07T00:51:17;4.80;;;2.88;;
33954;SDS011;20233;50.804;7.126;2023-05-07T00:53:44;4.63;;;2.78;;
33954;SDS011;20233;50.804;7.126;2023-05-07T00:56:11;3.92;;;2.83;;
33954;SDS011;20233;50.804;7.126;2023-05-07T00:58:38;5.30;;;3.42;;
33954;SDS011;20233;50.804;7.126;2023-05-07T01:01:05;5.40;;;2.95;;
33954;SDS011;20233;50.804;7.126;2023-05-07T01:03:32;2.90;;;2.50;;
33954;SDS011;20233;50.804;7.126;2023-05-07T01:05:58;4.15;;;2.15;;
33954;SDS011;20233;50.804;7.126;2023-05-07T01:08:25;6.32;;;2.58;;
33954;SDS011;20233;50.804;7.126;2023-05-07T01:10:55;3.40;;;2.35;;
33954;SDS011;20233;50.804;7.126;2023-05-07T01:13:24;4.95;;;2.50;;
33954;SDS011;20233;50.804;7.126;2023-05-07T01:15:51;7.00;;;2.63;;
33954;SDS011;20233;50.804;7.126;2023-05-07T01:18:17;3.80;;;2.10;;
33954;SDS011;20233;50.804;7.126;2023-05-07T01:20:45;4.32;;;2.65;;
33954;SDS011;20233;50.804;7.126;2023-05-07T01:23:11;4.88;;;2.38;;
33954;SDS011;20233;50.804;7.126;2023-05-07T01:25:38;3.47;;;2.38;;
33954;SDS011;20233;50.804;7.126;2023-05-07T01:28:04;3.38;;;1.92;;
33954;SDS011;20233;50.804;7.126;2023-05-07T01:30:31;3.33;;;2.33;;
33954;SDS011;20233;50.804;7.126;2023-05-07T01:33:03;4.97;;;1.80;;
33954;SDS011;20233;50.804;7.126;2023-05-07T01:35:37;3.58;;;2.20;;
33954;SDS011;20233;50.804;7.126;2023-05-07T01:38:07;4.85;;;2.35;;
33954;SDS011;20233;50.804;7.126;2023-05-07T01:40:34;3.85;;;2.50;;
33954;SDS011;20233;50.804;7.126;2023-05-07T01:43:02;3.50;;;2.35;;
33954;SDS011;20233;50.804;7.126;2023-05-07T01:45:28;4.15;;;2.90;;
33954;SDS011;20233;50.804;7.126;2023-05-07T01:48:00;3.30;;;1.98;;
33954;SDS011;20233;50.804;7.126;2023-05-07T01:50:27;3.47;;;2.00;;
33954;SDS011;20233;50.804;7.126;2023-05-07T01:52:54;3.75;;;2.38;;
33954;SDS011;20233;50.804;7.126;2023-05-07T01:55:21;2.67;;;2.13;;
33954;SDS011;20233;50.804;7.126;2023-05-07T01:57:48;3.28;;;2.08;;
33954;SDS011;20233;50.804;7.126;2023-05-07T02:00:15;3.97;;;2.53;;
33954;SDS011;20233;50.804;7.126;2023-05-07T02:02:42;4.22;;;2.13;;
33954;SDS011;20233;50.804;7.126;2023-05-07T02:05:08;3.63;;;2.30;;
33954;SDS011;20233;50.804;7.126;2023-05-07T02:07:35;8.93;;;2.10;;
33954;SDS011;20233;50.804;7.126;2023-05-07T02:10:02;4.18;;;1.98;;
33954;SDS011;20233;50.804;7.126;2023-05-07T02:12:29;3.75;;;2.13;;
33954;SDS011;20233;50.804;7.126;2023-05-07T02:14:56;3.45;;;2.25;;
33954;SDS011;20233;50.804;7.126;2023-05-07T02:17:27;3.63;;;2.28;;
33954;SDS011;20233;50.804;7.126;2023-05-07T02:19:57;10.40;;;2.67;;
33954;SDS011;20233;50.804;7.126;2023-05-07T02:22:23;5.32;;;2.33;;
33954;SDS011;20233;50.804;7.126;2023-05-07T02:24:50;4.57;;;2.20;;
33954;SDS011;20233;50.804;7.126;2023-05-07T02:27:17;4.65;;;2.67;;
33954;SDS011;20233;50.804;7.126;2023-05-07T02:29:44;4.57;;;2.75;;
33954;SDS011;20233;50.804;7.126;2023-05-07T02:32:10;4.97;;;2.33;;
33954;SDS011;20233;50.804;7.126;2023-05-07T02:34:37;6.03;;;2.83;;
33954;SDS011;20233;50.804;7.126;2023-05-07T02:37:04;6.18;;;2.75;;
33954;SDS011;20233;50.804;7.126;2023-05-07T02:39:30;5.82;;;2.58;;
33954;SDS011;20233;50.804;7.126;2023-05-07T02:41:59;4.18;;;2.42;;
33954;SDS011;20233;50.804;7.126;2023-05-07T02:44:25;5.03;;;3.20;;
33954;SDS011;20233;50.804;7.126;2023-05-07T02:46:52;5.63;;;2.70;;
33954;SDS011;20233;50.804;7.126;2023-05-07T02:49:18;5.13;;;2.78;;
33954;SDS011;20233;50.804;7.126;2023-05-07T02:51:45;4.00;;;2.67;;
33954;SDS011;20233;50.804;7.126;2023-05-07T02:54:11;5.20;;;2.65;;
33954;SDS011;20233;50.804;7.126;2023-05-07T02:56:38;6.85;;;2.33;;
33954;SDS011;20233;50.804;7.126;2023-05-07T02:59:05;5.03;;;2.65;;
33954;SDS011;20233;50.804;7.126;2023-05-07T03:01:31;6.90;;;2.80;;
33954;SDS011;20233;50.804;7.126;2023-05-07T03:03:58;3.75;;;2.42;;
33954;SDS011;20233;50.804;7.126;2023-05-07T03:06:24;3.55;;;2.30;;
33954;SDS011;20233;50.804;7.126;2023-05-07T03:08:51;3.50;;;2.60;;
33954;SDS011;20233;50.804;7.126;2023-05-07T03:11:18;4.45;;;2.25;;
33954;SDS011;20233;50.804;7.126;2023-05-07T03:13:45;3.55;;;2.42;;
33954;SDS011;20233;50.804;7.126;2023-05-07T03:16:10;3.53;;;2.45;;
33954;SDS011;20233;50.804;7.126;2023-05-07T03:18:37;4.50;;;2.35;;
33954;SDS011;20233;50.804;7.126;2023-05-07T03:21:03;4.40;;;2.30;;
33954;SDS011;20233;50.804;7.126;2023-05-07T03:23:29;3.65;;;2.28;;
33954;SDS011;20233;50.804;7.126;2023-05-07T03:25:56;5.20;;;2.30;;
33954;SDS011;20233;50.804;7.126;2023-05-07T03:28:22;4.53;;;2.17;;
33954;SDS011;20233;50.804;7.126;2023-05-07T03:30:49;4.70;;;2.65;;
33954;SDS011;20233;50.804;7.126;2023-05-07T03:33:15;4.63;;;1.90;;
33954;SDS011;20233;50.804;7.126;2023-05-07T03:35:42;3.58;;;2.10;;
33954;SDS011;20233;50.804;7.126;2023-05-07T03:38:08;3.75;;;2.60;;
33954;SDS011;20233;50.804;7.126;2023-05-07T03:40:35;3.83;;;2.35;;
33954;SDS011;20233;50.804;7.126;2023-05-07T03:43:01;3.85;;;2.28;;
33954;SDS011;20233;50.804;7.126;2023-05-07T03:45:27;5.88;;;2.22;;
33954;SDS011;20233;50.804;7.126;2023-05-07T03:47:53;8.68;;;2.28;;
33954;SDS011;20233;50.804;7.126;2023-05-07T03:50:21;3.45;;;2.00;;
33954;SDS011;20233;50.804;7.126;2023-05-07T03:52:48;3.50;;;1.90;;
33954;SDS011;20233;50.804;7.126;2023-05-07T03:55:14;3.33;;;1.90;;
33954;SDS011;20233;50.804;7.126;2023-05-07T03:57:40;2.92;;;1.80;;
33954;SDS011;20233;50.804;7.126;2023-05-07T04:00:07;4.97;;;2.20;;
33954;SDS011;20233;50.804;7.126;2023-05-07T04:02:35;7.43;;;2.22;;
33954;SDS011;20233;50.804;7.126;2023-05-07T04:05:01;2.80;;;1.77;;
33954;SDS011;20233;50.804;7.126;2023-05-07T04:07:27;3.33;;;1.92;;
33954;SDS011;20233;50.804;7.126;2023-05-07T04:09:54;4.38;;;1.83;;
33954;SDS011;20233;50.804;7.126;2023-05-07T04:12:20;5.05;;;2.17;;
33954;SDS011;20233;50.804;7.126;2023-05-07T04:14:47;4.15;;;1.70;;
33954;SDS011;20233;50.804;7.126;2023-05-07T04:17:13;4.57;;;1.63;;
33954;SDS011;20233;50.804;7.126;2023-05-07T04:19:40;3.42;;;2.00;;
33954;SDS011;20233;50.804;7.126;2023-05-07T04:22:10;3.70;;;1.65;;
33954;SDS011;20233;50.804;7.126;2023-05-07T04:24:37;2.50;;;1.73;;
33954;SDS011;20233;50.804;7.126;2023-05-07T04:27:04;3.50;;;2.30;;
33954;SDS011;20233;50.804;7.126;2023-05-07T04:29:31;3.63;;;2.08;;
33954;SDS011;20233;50.804;7.126;2023-05-07T04:31:57;7.15;;;2.28;;
33954;SDS011;20233;50.804;7.126;2023-05-07T04:34:24;4.93;;;2.60;;
33954;SDS011;20233;50.804;7.126;2023-05-07T04:36:50;4.05;;;1.92;;
33954;SDS011;20233;50.804;7.126;2023-05-07T04:39:16;3.13;;;2.30;;
33954;SDS011;20233;50.804;7.126;2023-05-07T04:41:43;5.68;;;1.90;;
33954;SDS011;20233;50.804;7.126;2023-05-07T04:44:10;5.32;;;2.92;;
33954;SDS011;20233;50.804;7.126;2023-05-07T04:46:36;5.07;;;2.42;;
33954;SDS011;20233;50.804;7.126;2023-05-07T04:49:02;4.60;;;2.20;;
33954;SDS011;20233;50.804;7.126;2023-05-07T04:51:28;6.22;;;2.33;;
33954;SDS011;20233;50.804;7.126;2023-05-07T04:53:55;5.25;;;2.10;;
33954;SDS011;20233;50.804;7.126;2023-05-07T04:56:22;10.57;;;2.10;;
33954;SDS011;20233;50.804;7.126;2023-05-07T04:58:49;3.75;;;2.35;;
33954;SDS011;20233;50.804;7.126;2023-05-07T05:01:16;3.90;;;2.35;;
33954;SDS011;20233;50.804;7.126;2023-05-07T05:03:43;4.30;;;2.42;;
33954;SDS011;20233;50.804;7.126;2023-05-07T05:06:09;4.20;;;1.83;;
33954;SDS011;20233;50.804;7.126;2023-05-07T05:08:35;5.63;;;2.30;;
33954;SDS011;20233;50.804;7.126;2023-05-07T05:11:02;2.88;;;2.10;;
33954;SDS011;20233;50.804;7.126;2023-05-07T05:13:28;3.80;;;2.38;;
33954;SDS011;20233;50.804;7.126;2023-05-07T05:15:55;3.88;;;2.22;;
33954;SDS011;20233;50.804;7.126;2023-05-07T05:18:22;4.30;;;2.20;;
33954;SDS011;20233;50.804;7.126;2023-05-07T05:20:48;3.03;;;2.22;;
33954;SDS011;20233;50.804;7.126;2023-05-07T05:23:16;2.83;;;1.80;;
33954;SDS011;20233;50.804;7.126;2023-05-07T05:25:43;3.38;;;2.28;;
33954;SDS011;20233;50.804;7.126;2023-05-07T05:28:10;3.90;;;2.53;;
33954;SDS011;20233;50.804;7.126;2023-05-07T05:30:37;2.65;;;1.63;;
33954;SDS011;20233;50.804;7.126;2023-05-07T05:33:04;2.33;;;1.20;;
33954;SDS011;20233;50.804;7.126;2023-05-07T05:35:31;3.38;;;1.67;;
33954;SDS011;20233;50.804;7.126;2023-05-07T05:37:58;4.53;;;1.42;;
33954;SDS011;20233;50.804;7.126;2023-05-07T05:40:23;4.07;;;1.98;;
33954;SDS011;20233;50.804;7.126;2023-05-07T05:42:50;3.28;;;1.88;;
33954;SDS011;20233;50.804;7.126;2023-05-07T05:45:16;3.90;;;1.77;;
33954;SDS011;20233;50.804;7.126;2023-05-07T05:47:43;3.45;;;1.40;;
33954;SDS011;20233;50.804;7.126;2023-05-07T05:50:10;4.50;;;1.80;;
33954;SDS011;20233;50.804;7.126;2023-05-07T05:52:36;2.30;;;1.48;;
33954;SDS011;20233;50.804;7.126;2023-05-07T05:55:03;2.17;;;1.35;;
33954;SDS011;20233;50.804;7.126;2023-05-07T05:57:30;3.15;;;1.52;;
33954;SDS011;20233;50.804;7.126;2023-05-07T05:59:57;3.35;;;1.33;;
33954;SDS011;20233;50.804;7.126;2023-05-07T06:02:26;2.25;;;1.20;;
33954;SDS011;20233;50.804;7.126;2023-05-07T06:04:52;3.25;;;1.50;;
33954;SDS011;20233;50.804;7.126;2023-05-07T06:07:20;4.57;;;1.48;;
33954;SDS011;20233;50.804;7.126;2023-05-07T06:09:47;3.58;;;1.35;;
33954;SDS011;20233;50.804;7.126;2023-05-07T06:12:13;2.92;;;1.35;;
33954;SDS011;20233;50.804;7.126;2023-05-07T06:14:40;2.38;;;1.30;;
33954;SDS011;20233;50.804;7.126;2023-05-07T06:17:09;3.28;;;1.25;;
33954;SDS011;20233;50.804;7.126;2023-05-07T06:19:35;3.70;;;1.63;;
33954;SDS011;20233;50.804;7.126;2023-05-07T06:22:01;2.70;;;1.25;;
33954;SDS011;20233;50.804;7.126;2023-05-07T06:24:27;3.85;;;1.63;;
33954;SDS011;20233;50.804;7.126;2023-05-07T06:26:53;2.25;;;1.15;;
33954;SDS011;20233;50.804;7.126;2023-05-07T06:29:20;2.78;;;1.05;;
33954;SDS011;20233;50.804;7.126;2023-05-07T06:31:48;2.40;;;0.93;;
33954;SDS011;20233;50.804;7.126;2023-05-07T06:34:15;4.07;;;1.45;;
33954;SDS011;20233;50.804;7.126;2023-05-07T06:36:41;2.47;;;0.93;;
33954;SDS011;20233;50.804;7.126;2023-05-07T06:39:08;2.35;;;1.05;;
33954;SDS011;20233;50.804;7.126;2023-05-07T06:41:34;4.25;;;1.35;;
33954;SDS011;20233;50.804;7.126;2023-05-07T06:44:02;1.80;;;0.90;;
33954;SDS011;20233;50.804;7.126;2023-05-07T06:46:30;1.58;;;0.93;;
33954;SDS011;20233;50.804;7.126;2023-05-07T06:48:56;2.97;;;0.90;;
33954;SDS011;20233;50.804;7.126;2023-05-07T06:51:24;3.13;;;1.48;;
33954;SDS011;20233;50.804;7.126;2023-05-07T06:53:52;4.60;;;1.02;;
33954;SDS011;20233;50.804;7.126;2023-05-07T06:56:18;3.72;;;0.95;;
33954;SDS011;20233;50.804;7.126;2023-05-07T06:58:45;2.72;;;0.73;;
33954;SDS011;20233;50.804;7.126;2023-05-07T07:01:11;2.10;;;0.85;;
33954;SDS011;20233;50.804;7.126;2023-05-07T07:03:37;2.00;;;0.60;;
33954;SDS011;20233;50.804;7.126;2023-05-07T07:06:04;2.42;;;1.00;;
33954;SDS011;20233;50.804;7.126;2023-05-07T07:08:30;1.75;;;0.80;;
33954;SDS011;20233;50.804;7.126;2023-05-07T07:10:56;1.95;;;0.75;;
33954;SDS011;20233;50.804;7.126;2023-05-07T07:13:24;3.20;;;0.82;;
33954;SDS011;20233;50.804;7.126;2023-05-07T07:15:51;2.65;;;0.90;;
33954;SDS011;20233;50.804;7.126;2023-05-07T07:18:18;2.28;;;1.00;;
33954;SDS011;20233;50.804;7.126;2023-05-07T07:20:45;1.70;;;0.75;;
33954;SDS011;20233;50.804;7.126;2023-05-07T07:23:12;3.13;;;1.13;;
33954;SDS011;20233;50.804;7.126;2023-05-07T07:25:39;2.03;;;0.60;;
33954;SDS011;20233;50.804;7.126;2023-05-07T07:28:06;2.88;;;0.60;;
33954;SDS011;20233;50.804;7.126;2023-05-07T07:30:32;3.38;;;1.00;;
33954;SDS011;20233;50.804;7.126;2023-05-07T07:32:58;2.42;;;0.90;;
33954;SDS011;20233;50.804;7.126;2023-05-07T07:35:31;1.45;;;0.80;;
33954;SDS011;20233;50.804;7.126;2023-05-07T07:37:58;2.30;;;0.93;;
33954;SDS011;20233;50.804;7.126;2023-05-07T07:40:24;4.20;;;1.10;;
33954;SDS011;20233;50.804;7.126;2023-05-07T07:42:51;2.30;;;1.13;;
33954;SDS011;20233;50.804;7.126;2023-05-07T07:45:18;3.53;;;1.00;;
33954;SDS011;20233;50.804;7.126;2023-05-07T07:47:45;2.40;;;0.90;;
33954;SDS011;20233;50.804;7.126;2023-05-07T07:50:11;1.73;;;0.93;;
33954;SDS011;20233;50.804;7.126;2023-05-07T07:52:37;2.15;;;0.70;;
33954;SDS011;20233;50.804;7.126;2023-05-07T07:55:04;2.00;;;0.82;;
33954;SDS011;20233;50.804;7.126;2023-05-07T07:57:30;3.05;;;0.80;;
33954;SDS011;20233;50.804;7.126;2023-05-07T07:59:56;3.15;;;1.08;;
33954;SDS011;20233;50.804;7.126;2023-05-07T08:02:23;3.92;;;1.70;;
33954;SDS011;20233;50.804;7.126;2023-05-07T08:04:49;3.67;;;1.33;;
33954;SDS011;20233;50.804;7.126;2023-05-07T08:07:16;2.90;;;1.05;;
33954;SDS011;20233;50.804;7.126;2023-05-07T08:09:45;2.22;;;1.08;;
33954;SDS011;20233;50.804;7.126;2023-05-07T08:12:12;2.80;;;0.90;;
33954;SDS011;20233;50.804;7.126;2023-05-07T08:14:40;3.78;;;1.15;;
33954;SDS011;20233;50.804;7.126;2023-05-07T08:17:06;3.08;;;1.08;;
33954;SDS011;20233;50.804;7.126;2023-05-07T08:19:34;3.00;;;0.70;;
33954;SDS011;20233;50.804;7.126;2023-05-07T08:22:02;1.77;;;0.77;;
33954;SDS011;20233;50.804;7.126;2023-05-07T08:24:30;2.33;;;0.90;;
33954;SDS011;20233;50.804;7.126;2023-05-07T08:26:57;2.30;;;0.80;;
33954;SDS011;20233;50.804;7.126;2023-05-07T08:29:24;2.15;;;1.05;;
33954;SDS011;20233;50.804;7.126;2023-05-07T08:31:50;3.75;;;0.90;;
33954;SDS011;20233;50.804;7.126;2023-05-07T08:34:16;2.35;;;1.02;;
33954;SDS011;20233;50.804;7.126;2023-05-07T08:36:43;1.30;;;0.68;;
33954;SDS011;20233;50.804;7.126;2023-05-07T08:39:12;3.40;;;1.00;;
33954;SDS011;20233;50.804;7.126;2023-05-07T08:41:38;2.15;;;0.95;;
33954;SDS011;20233;50.804;7.126;2023-05-07T08:44:05;3.45;;;1.10;;
33954;SDS011;20233;50.804;7.126;2023-05-07T08:46:36;2.40;;;0.70;;
33954;SDS011;20233;50.804;7.126;2023-05-07T08:49:03;4.03;;;0.77;;
33954;SDS011;20233;50.804;7.126;2023-05-07T08:51:29;1.67;;;0.70;;
33954;SDS011;20233;50.804;7.126;2023-05-07T08:53:56;3.40;;;0.80;;
33954;SDS011;20233;50.804;7.126;2023-05-07T08:56:24;2.15;;;0.70;;
33954;SDS011;20233;50.804;7.126;2023-05-07T08:58:50;2.75;;;1.00;;
33954;SDS011;20233;50.804;7.126;2023-05-07T09:01:21;1.70;;;0.65;;
33954;SDS011;20233;50.804;7.126;2023-05-07T09:03:49;1.90;;;0.68;;
33954;SDS011;20233;50.804;7.126;2023-05-07T09:06:17;1.73;;;0.50;;
33954;SDS011;20233;50.804;7.126;2023-05-07T09:08:53;2.17;;;0.75;;
33954;SDS011;20233;50.804;7.126;2023-05-07T09:11:21;1.45;;;0.50;;
33954;SDS011;20233;50.804;7.126;2023-05-07T09:13:48;1.45;;;0.50;;
33954;SDS011;20233;50.804;7.126;2023-05-07T09:16:35;1.35;;;0.50;;
33954;SDS011;20233;50.804;7.126;2023-05-07T09:19:03;2.05;;;0.70;;
33954;SDS011;20233;50.804;7.126;2023-05-07T09:21:28;2.15;;;0.63;;
33954;SDS011;20233;50.804;7.126;2023-05-07T09:23:55;4.07;;;0.65;;
33954;SDS011;20233;50.804;7.126;2023-05-07T09:26:22;2.55;;;0.60;;
33954;SDS011;20233;50.804;7.126;2023-05-07T09:28:50;2.22;;;0.80;;
33954;SDS011;20233;50.804;7.126;2023-05-07T09:31:17;5.07;;;1.02;;
33954;SDS011;20233;50.804;7.126;2023-05-07T09:33:44;1.30;;;0.60;;
33954;SDS011;20233;50.804;7.126;2023-05-07T09:36:10;2.70;;;0.70;;
33954;SDS011;20233;50.804;7.126;2023-05-07T09:38:37;2.28;;;0.70;;
33954;SDS011;20233;50.804;7.126;2023-05-07T09:41:05;1.92;;;0.50;;
33954;SDS011;20233;50.804;7.126;2023-05-07T09:43:39;2.80;;;0.52;;
33954;SDS011;20233;50.804;7.126;2023-05-07T09:46:07;1.70;;;0.80;;
33954;SDS011;20233;50.804;7.126;2023-05-07T09:48:39;2.30;;;0.70;;
33954;SDS011;20233;50.804;7.126;2023-05-07T09:51:10;2.90;;;0.77;;
33954;SDS011;20233;50.804;7.126;2023-05-07T09:53:43;1.55;;;0.60;;
33954;SDS011;20233;50.804;7.126;2023-05-07T09:56:12;3.22;;;0.80;;
33954;SDS011;20233;50.804;7.126;2023-05-07T09:58:43;2.60;;;0.70;;
33954;SDS011;20233;50.804;7.126;2023-05-07T10:01:10;2.92;;;0.60;;
33954;SDS011;20233;50.804;7.126;2023-05-07T10:03:41;1.77;;;0.55;;
33954;SDS011;20233;50.804;7.126;2023-05-07T10:06:09;3.63;;;0.88;;
33954;SDS011;20233;50.804;7.126;2023-05-07T10:08:36;2.05;;;0.52;;
33954;SDS011;20233;50.804;7.126;2023-05-07T10:11:03;3.67;;;0.60;;
33954;SDS011;20233;50.804;7.126;2023-05-07T10:13:32;2.58;;;0.70;;
33954;SDS011;20233;50.804;7.126;2023-05-07T10:16:06;2.75;;;0.90;;
33954;SDS011;20233;50.804;7.126;2023-05-07T10:18:33;2.58;;;0.60;;
33954;SDS011;20233;50.804;7.126;2023-05-07T10:21:06;1.48;;;0.80;;
33954;SDS011;20233;50.804;7.126;2023-05-07T10:23:36;3.38;;;0.93;;
33954;SDS011;20233;50.804;7.126;2023-05-07T10:26:04;2.00;;;0.80;;
33954;SDS011;20233;50.804;7.126;2023-05-07T10:28:34;2.08;;;0.50;;
33954;SDS011;20233;50.804;7.126;2023-05-07T10:33:55;1.20;;;0.40;;
33954;SDS011;20233;50.804;7.126;2023-05-07T10:36:26;1.67;;;0.70;;
33954;SDS011;20233;50.804;7.126;2023-05-07T10:38:54;3.45;;;0.57;;
33954;SDS011;20233;50.804;7.126;2023-05-07T10:41:21;1.77;;;0.68;;
33954;SDS011;20233;50.804;7.126;2023-05-07T10:43:48;2.20;;;0.52;;
33954;SDS011;20233;50.804;7.126;2023-05-07T10:46:18;1.52;;;0.47;;
33954;SDS011;20233;50.804;7.126;2023-05-07T10:51:32;1.38;;;0.32;;
33954;SDS011;20233;50.804;7.126;2023-05-07T10:54:41;2.88;;;0.50;;
33954;SDS011;20233;50.804;7.126;2023-05-07T10:56:49;1.40;;;0.68;;
33954;SDS011;20233;50.804;7.126;2023-05-07T11:01:49;2.40;;;0.60;;
33954;SDS011;20233;50.804;7.126;2023-05-07T11:04:19;1.17;;;0.43;;
33954;SDS011;20233;50.804;7.126;2023-05-07T11:20:54;2.70;;;0.40;;
33954;SDS011;20233;50.804;7.126;2023-05-07T11:26:07;1.10;;;0.43;;
33954;SDS011;20233;50.804;7.126;2023-05-07T11:28:39;1.40;;;0.45;;
33954;SDS011;20233;50.804;7.126;2023-05-07T11:31:07;2.78;;;0.40;;
33954;SDS011;20233;50.804;7.126;2023-05-07T11:33:34;2.55;;;0.47;;
33954;SDS011;20233;50.804;7.126;2023-05-07T11:36:02;2.10;;;0.30;;
33954;SDS011;20233;50.804;7.126;2023-05-07T11:38:35;1.65;;;0.50;;
33954;SDS011;20233;50.804;7.126;2023-05-07T11:41:02;2.72;;;0.45;;
33954;SDS011;20233;50.804;7.126;2023-05-07T11:43:31;1.67;;;0.35;;
33954;SDS011;20233;50.804;7.126;2023-05-07T11:46:05;1.17;;;0.50;;
33954;SDS011;20233;50.804;7.126;2023-05-07T11:48:36;1.63;;;0.30;;
33954;SDS011;20233;50.804;7.126;2023-05-07T11:51:05;1.75;;;0.50;;
33954;SDS011;20233;50.804;7.126;2023-05-07T11:53:40;1.77;;;0.50;;
33954;SDS011;20233;50.804;7.126;2023-05-07T11:58:36;1.85;;;0.50;;
33954;SDS011;20233;50.804;7.126;2023-05-07T12:01:04;1.75;;;0.45;;
33954;SDS011;20233;50.804;7.126;2023-05-07T12:03:32;1.15;;;0.20;;
33954;SDS011;20233;50.804;7.126;2023-05-07T12:06:00;2.05;;;0.30;;
33954;SDS011;20233;50.804;7.126;2023-05-07T12:08:28;0.95;;;0.30;;
33954;SDS011;20233;50.804;7.126;2023-05-07T12:10:55;0.88;;;0.25;;
33954;SDS011;20233;50.804;7.126;2023-05-07T12:13:22;1.25;;;0.40;;
33954;SDS011;20233;50.804;7.126;2023-05-07T12:15:51;3.03;;;0.30;;
33954;SDS011;20233;50.804;7.126;2023-05-07T12:18:22;3.47;;;0.50;;
33954;SDS011;20233;50.804;7.126;2023-05-07T12:20:49;1.10;;;0.30;;
33954;SDS011;20233;50.804;7.126;2023-05-07T12:23:17;2.17;;;0.40;;
33954;SDS011;20233;50.804;7.126;2023-05-07T12:25:46;1.30;;;0.30;;
33954;SDS011;20233;50.804;7.126;2023-05-07T12:28:13;1.35;;;0.50;;
33954;SDS011;20233;50.804;7.126;2023-05-07T12:30:44;1.45;;;0.32;;
33954;SDS011;20233;50.804;7.126;2023-05-07T12:33:23;1.65;;;0.50;;
33954;SDS011;20233;50.804;7.126;2023-05-07T12:35:52;1.88;;;0.40;;
33954;SDS011;20233;50.804;7.126;2023-05-07T12:38:20;1.27;;;0.40;;
33954;SDS011;20233;50.804;7.126;2023-05-07T12:40:48;2.33;;;0.30;;
33954;SDS011;20233;50.804;7.126;2023-05-07T12:43:26;1.58;;;0.43;;
33954;SDS011;20233;50.804;7.126;2023-05-07T12:45:59;1.63;;;0.40;;
33954;SDS011;20233;50.804;7.126;2023-05-07T12:48:27;1.33;;;0.30;;
33954;SDS011;20233;50.804;7.126;2023-05-07T12:50:54;1.58;;;0.38;;
33954;SDS011;20233;50.804;7.126;2023-05-07T12:53:24;3.28;;;0.38;;
33954;SDS011;20233;50.804;7.126;2023-05-07T12:55:55;3.33;;;0.52;;
33954;SDS011;20233;50.804;7.126;2023-05-07T12:58:26;1.98;;;0.50;;
33954;SDS011;20233;50.804;7.126;2023-05-07T13:00:55;1.33;;;0.40;;
33954;SDS011;20233;50.804;7.126;2023-05-07T13:03:25;1.83;;;0.50;;
33954;SDS011;20233;50.804;7.126;2023-05-07T13:05:58;3.75;;;0.60;;
33954;SDS011;20233;50.804;7.126;2023-05-07T13:08:34;2.08;;;0.77;;
33954;SDS011;20233;50.804;7.126;2023-05-07T13:11:09;2.08;;;0.77;;
33954;SDS011;20233;50.804;7.126;2023-05-07T13:13:36;1.55;;;0.55;;
33954;SDS011;20233;50.804;7.126;2023-05-07T13:16:05;2.10;;;0.70;;
33954;SDS011;20233;50.804;7.126;2023-05-07T13:18:33;1.42;;;0.60;;
33954;SDS011;20233;50.804;7.126;2023-05-07T13:21:00;2.33;;;0.38;;
33954;SDS011;20233;50.804;7.126;2023-05-07T13:23:27;1.90;;;0.68;;
33954;SDS011;20233;50.804;7.126;2023-05-07T13:25:54;2.65;;;0.80;;
33954;SDS011;20233;50.804;7.126;2023-05-07T13:28:23;2.05;;;0.95;;
33954;SDS011;20233;50.804;7.126;2023-05-07T13:30:52;2.50;;;0.60;;
33954;SDS011;20233;50.804;7.126;2023-05-07T13:33:20;3.75;;;0.80;;
33954;SDS011;20233;50.804;7.126;2023-05-07T13:35:47;2.47;;;0.68;;
33954;SDS011;20233;50.804;7.126;2023-05-07T13:38:14;1.88;;;0.52;;
33954;SDS011;20233;50.804;7.126;2023-05-07T13:40:41;3.25;;;0.80;;
33954;SDS011;20233;50.804;7.126;2023-05-07T13:43:08;2.05;;;0.68;;
33954;SDS011;20233;50.804;7.126;2023-05-07T13:45:34;1.45;;;0.50;;
33954;SDS011;20233;50.804;7.126;2023-05-07T13:48:01;3.80;;;0.75;;
33954;SDS011;20233;50.804;7.126;2023-05-07T13:50:27;2.05;;;0.47;;
33954;SDS011;20233;50.804;7.126;2023-05-07T13:52:55;1.42;;;0.68;;
33954;SDS011;20233;50.804;7.126;2023-05-07T13:55:22;3.30;;;1.20;;
33954;SDS011;20233;50.804;7.126;2023-05-07T13:57:56;2.95;;;0.93;;
33954;SDS011;20233;50.804;7.126;2023-05-07T14:00:25;1.40;;;0.60;;
33954;SDS011;20233;50.804;7.126;2023-05-07T14:02:54;3.80;;;0.85;;
33954;SDS011;20233;50.804;7.126;2023-05-07T14:05:21;2.88;;;0.90;;
33954;SDS011;20233;50.804;7.126;2023-05-07T14:07:53;2.03;;;0.70;;
33954;SDS011;20233;50.804;7.126;2023-05-07T14:10:23;3.42;;;0.70;;
33954;SDS011;20233;50.804;7.126;2023-05-07T14:15:21;2.13;;;0.65;;
33954;SDS011;20233;50.804;7.126;2023-05-07T14:17:48;3.88;;;0.88;;
33954;SDS011;20233;50.804;7.126;2023-05-07T14:20:15;3.17;;;0.60;;
33954;SDS011;20233;50.804;7.126;2023-05-07T14:22:42;2.70;;;0.63;;
33954;SDS011;20233;50.804;7.126;2023-05-07T14:25:09;4.85;;;1.38;;
33954;SDS011;20233;50.804;7.126;2023-05-07T14:27:36;4.50;;;1.42;;
33954;SDS011;20233;50.804;7.126;2023-05-07T14:30:03;4.43;;;0.95;;
33954;SDS011;20233;50.804;7.126;2023-05-07T14:32:30;3.83;;;0.90;;
33954;SDS011;20233;50.804;7.126;2023-05-07T14:34:56;2.97;;;1.02;;
33954;SDS011;20233;50.804;7.126;2023-05-07T14:37:23;6.07;;;1.40;;
33954;SDS011;20233;50.804;7.126;2023-05-07T14:39:49;4.60;;;1.35;;
33954;SDS011;20233;50.804;7.126;2023-05-07T14:42:17;4.45;;;1.60;;
33954;SDS011;20233;50.804;7.126;2023-05-07T14:44:44;2.90;;;1.45;;
33954;SDS011;20233;50.804;7.126;2023-05-07T14:47:10;10.65;;;2.58;;
33954;SDS011;20233;50.804;7.126;2023-05-07T14:49:37;3.22;;;2.08;;
33954;SDS011;20233;50.804;7.126;2023-05-07T14:52:05;7.70;;;2.00;;
33954;SDS011;20233;50.804;7.126;2023-05-07T14:54:33;5.63;;;2.35;;
33954;SDS011;20233;50.804;7.126;2023-05-07T14:57:01;4.47;;;2.25;;
33954;SDS011;20233;50.804;7.126;2023-05-07T14:59:27;4.53;;;2.03;;
33954;SDS011;20233;50.804;7.126;2023-05-07T15:01:54;11.85;;;3.08;;
33954;SDS011;20233;50.804;7.126;2023-05-07T15:04:21;4.70;;;3.38;;
33954;SDS011;20233;50.804;7.126;2023-05-07T15:06:50;3.50;;;1.90;;
33954;SDS011;20233;50.804;7.126;2023-05-07T15:09:19;1.65;;;0.65;;
33954;SDS011;20233;50.804;7.126;2023-05-07T15:11:46;2.90;;;0.90;;
33954;SDS011;20233;50.804;7.126;2023-05-07T15:14:13;1.45;;;0.60;;
33954;SDS011;20233;50.804;7.126;2023-05-07T15:16:40;3.78;;;0.77;;
33954;SDS011;20233;50.804;7.126;2023-05-07T15:19:07;1.10;;;0.45;;
33954;SDS011;20233;50.804;7.126;2023-05-07T15:21:33;3.42;;;0.70;;